Main page
METAR-TAF:

Airports :

Tunis, Tunisia

Tunis–Carthage International Airport

latitude: 36-50N, longitude: 010-14E, elevation: 3 m

Current weather observation

The report was made 37 minutes ago, at 23:00 UTC
Wind 6 kt from the Southeast, varying between East and South
Temperature 26°C
Humidity 54%
Pressure 1014 hPa
Visibility 10 km or more
Few clouds at a height of 2600 ft

METAR: DTTA 292300Z 13006KT 090V170 9999 FEW026 26/16 Q1014 NOSIG

Time: 00:37 (23:37 UTC)

Forecast

The report was made 6 hours and 37 minutes ago, at 17:00 UTC
Forecast valid from 29 at 18 UTC to 30 at 18 UTC
Wind 10 kt from the East/Northeast
Visibility 10 km or more
Few clouds at a height of 2600 ft
Probability 30% :
Temporary
from 29 at 18 UTC to 29 at 20 UTC
Few clouds at a height of 2600 ft, Cumulonimbus.
thunderstorm, light rain
Becoming
from 30 at 00 UTC to 30 at 02 UTC
Wind 7 kt from the Southeast

TAF: DTTA 291700Z 2918/3018 06010KT 9999 FEW026 PROB30 TEMPO 2918/2920 -TSRA FEW026CB BECMG 3000/3002 13007KT

METAR-TAF

Weather observations and forecasts of more than 4000 airports (METAR and TAF reports).

The available stations are represented by yellow and red dots on the map.

Hover mouse over dot to see the name of the station.

Then click to see weather observations and forecasts.

To change the map : click on the green buttons with a black cross to zoom in, on the green button with a dash to zoom out, or on the green arrows for adjacent maps.


METAR-TAF: